Time;durP1;ratioP1;P1;durP2;ratioP2;P2;SDS_P1;SDS_P2;PMS_P1;PMS_P2;Temp;Humidity;BMP_temperature;BMP_pressure;BME280_temperature;BME280_humidity;BME280_pressure;Samples;Min_cycle;Max_cycle;Signal;HPM_P1;HPM_P2
2023/10/06 00:02:28;;;;;;;7.07;5.23;;;;;;;10.59;100.00;97401.81;6086663;23;105350;-74
2023/10/06 00:04:55;;;;;;;6.17;5.00;;;;;;;10.60;100.00;97406.09;6086415;23;105746;-73
2023/10/06 00:07:23;;;;;;;6.00;5.27;;;;;;;10.40;100.00;97400.22;6086783;23;101929;-73
2023/10/06 00:09:53;;;;;;;6.90;4.80;;;;;;;10.28;100.00;97391.38;6087218;23;105569;-73
2023/10/06 00:12:20;;;;;;;5.60;4.67;;;;;;;10.37;100.00;97400.69;6085785;23;105518;-73
2023/10/06 00:14:48;;;;;;;4.80;4.20;;;;;;;10.35;100.00;97402.75;6086823;23;101803;-73
2023/10/06 00:17:18;;;;;;;4.50;4.00;;;;;;;10.27;100.00;97403.06;6090353;23;105676;-73
2023/10/06 00:19:46;;;;;;;4.30;3.90;;;;;;;10.27;100.00;97403.06;6086554;23;101878;-73
2023/10/06 00:22:17;;;;;;;4.00;3.70;;;;;;;10.22;100.00;97397.59;6086718;23;105348;-73
2023/10/06 00:24:47;;;;;;;5.57;4.00;;;;;;;10.07;100.00;97397.16;6087623;23;102970;-73
2023/10/06 00:27:14;;;;;;;4.40;4.00;;;;;;;10.00;100.00;97399.06;6086806;23;101871;-73
2023/10/06 00:29:47;;;;;;;3.87;3.47;;;;;;;10.00;100.00;97391.09;6086904;23;105545;-72
2023/10/06 00:32:26;;;;;;;4.50;4.10;;;;;;;9.87;100.00;97388.59;6086459;23;105533;-72
2023/10/06 00:34:55;;;;;;;4.07;3.67;;;;;;;9.90;100.00;97388.94;6086766;23;102130;-72
2023/10/06 00:37:23;;;;;;;4.00;3.43;;;;;;;9.88;100.00;97391.00;6086499;23;105302;-72
2023/10/06 00:39:52;;;;;;;5.77;3.77;;;;;;;9.90;100.00;97390.78;6090164;23;104990;-72
2023/10/06 00:42:20;;;;;;;4.50;4.00;;;;;;;9.88;100.00;97398.19;6086654;23;105236;-72
2023/10/06 00:44:47;;;;;;;4.93;4.20;;;;;;;9.91;100.00;97389.75;6085796;23;105091;-72
2023/10/06 00:47:17;;;;;;;4.47;3.63;;;;;;;9.91;100.00;97393.22;6086652;23;101831;-72
2023/10/06 00:49:44;;;;;;;3.73;3.30;;;;;;;9.75;100.00;97387.69;6086317;23;105166;-72
2023/10/06 00:52:15;;;;;;;4.83;3.67;;;;;;;9.48;100.00;97387.13;6110550;23;105412;-72
2023/10/06 00:54:44;;;;;;;4.13;3.20;;;;;;;9.49;100.00;97385.31;6086792;23;101773;-72
2023/10/06 00:57:17;;;;;;;4.57;3.40;;;;;;;9.48;100.00;97386.34;6086377;23;105427;-72
2023/10/06 00:59:44;;;;;;;5.63;4.10;;;;;;;9.50;100.00;97384.28;6085904;23;105556;-72
2023/10/06 01:02:15;;;;;;;7.73;5.03;;;;;;;9.54;100.00;97390.78;6090640;23;101800;-73
2023/10/06 01:04:45;;;;;;;7.97;4.80;;;;;;;9.51;100.00;97380.56;6085310;23;104971;-73
2023/10/06 01:07:16;;;;;;;5.23;4.53;;;;;;;9.40;100.00;97382.13;6086274;23;101926;-72
2023/10/06 01:09:56;;;;;;;6.27;4.90;;;;;;;9.31;100.00;97383.44;6086727;23;104894;-73
2023/10/06 01:12:24;;;;;;;8.57;5.10;;;;;;;9.26;100.00;97393.09;6085769;23;105685;-73
2023/10/06 01:15:05;;;;;;;6.70;5.07;;;;;;;9.15;100.00;97385.81;6086308;23;102013;-73
2023/10/06 01:17:33;;;;;;;6.43;4.93;;;;;;;9.10;100.00;97389.13;6086449;23;105206;-73
2023/10/06 01:20:03;;;;;;;6.83;5.33;;;;;;;9.07;100.00;97394.03;6085379;23;105397;-73
2023/10/06 01:22:41;;;;;;;7.77;6.00;;;;;;;9.08;100.00;97385.88;6086060;23;101870;-73
2023/10/06 01:25:13;;;;;;;7.00;5.70;;;;;;;9.19;100.00;97394.97;6090021;23;105650;-73
2023/10/06 01:27:43;;;;;;;8.73;6.17;;;;;;;9.22;100.00;97392.69;6086533;23;101919;-73
2023/10/06 01:30:18;;;;;;;7.53;5.80;;;;;;;9.34;100.00;97400.75;6086748;23;105549;-73
2023/10/06 01:32:46;;;;;;;8.13;5.83;;;;;;;9.32;100.00;97398.31;6085738;23;105528;-73
2023/10/06 01:35:15;;;;;;;5.50;5.00;;;;;;;9.35;100.00;97392.59;6085919;23;102513;-73
2023/10/06 01:37:45;;;;;;;5.83;5.20;;;;;;;9.31;100.00;97387.91;6086023;23;104988;-72
2023/10/06 01:40:35;;;;;;;6.90;6.17;;;;;;;9.28;100.00;97386.50;6085497;23;105529;-72
2023/10/06 01:43:09;;;;;;;7.10;5.37;;;;;;;9.18;100.00;97390.69;6086111;23;101762;-72
2023/10/06 01:45:43;;;;;;;8.70;7.07;;;;;;;9.07;100.00;97388.75;6086541;23;104220;-72
2023/10/06 01:48:23;;;;;;;8.40;6.33;;;;;;;8.90;100.00;97387.66;6089298;23;102272;-72
2023/10/06 01:50:54;;;;;;;6.67;5.93;;;;;;;8.91;100.00;97389.28;6087761;23;105691;-72
2023/10/06 01:53:23;;;;;;;6.13;5.53;;;;;;;8.92;100.00;97390.88;6111718;23;105544;-72
2023/10/06 01:55:53;;;;;;;8.80;6.07;;;;;;;8.88;100.00;97384.41;6087180;23;102252;-72
2023/10/06 01:58:20;;;;;;;6.47;5.47;;;;;;;8.77;100.00;97388.53;6087427;23;105400;-72
2023/10/06 02:00:48;;;;;;;6.07;5.40;;;;;;;8.86;100.00;97381.16;6086861;23;104025;-72
2023/10/06 02:03:18;;;;;;;6.00;5.40;;;;;;;8.89;100.00;97380.72;6087208;23;101919;-72
2023/10/06 02:05:45;;;;;;;6.23;5.63;;;;;;;8.86;100.00;97379.31;6087301;23;105105;-73
2023/10/06 02:08:14;;;;;;;6.47;5.80;;;;;;;8.73;100.00;97382.03;6090664;23;105275;-73
2023/10/06 02:10:47;;;;;;;7.37;5.87;;;;;;;8.74;100.00;97388.16;6087434;23;105115;-73
2023/10/06 02:13:19;;;;;;;5.87;5.27;;;;;;;8.74;100.00;97390.81;6087058;23;105772;-73
2023/10/06 02:15:46;;;;;;;6.53;5.83;;;;;;;8.62;100.00;97395.19;6087665;23;102075;-73
2023/10/06 02:18:13;;;;;;;6.13;5.27;;;;;;;8.50;100.00;97391.59;6087157;23;105386;-73
2023/10/06 02:20:45;;;;;;;6.30;5.67;;;;;;;8.49;100.00;97384.66;6086728;23;105128;-73
2023/10/06 02:23:14;;;;;;;5.67;5.17;;;;;;;8.55;100.00;97387.25;6087670;23;101808;-73
2023/10/06 02:25:41;;;;;;;6.13;5.53;;;;;;;8.63;100.00;97387.03;6087206;23;105273;-73
2023/10/06 02:28:10;;;;;;;7.23;5.87;;;;;;;8.61;100.00;97388.25;6086457;23;105937;-73
2023/10/06 02:30:39;;;;;;;7.30;5.57;;;;;;;8.56;100.00;97394.19;6091340;23;101987;-73
2023/10/06 02:33:06;;;;;;;6.37;5.77;;;;;;;8.64;100.00;97387.81;6086397;23;105312;-73
2023/10/06 02:35:35;;;;;;;7.77;6.27;;;;;;;8.72;100.00;97387.59;6087168;23;101810;-72
2023/10/06 02:38:06;;;;;;;7.27;5.80;;;;;;;8.71;100.00;97383.28;6087199;23;105275;-73
2023/10/06 02:40:44;;;;;;;6.93;6.00;;;;;;;8.68;100.00;97381.88;6088217;23;104133;-73
2023/10/06 02:43:16;;;;;;;7.77;6.20;;;;;;;8.70;100.00;97379.00;6087292;23;101832;-73
2023/10/06 02:45:44;;;;;;;7.83;6.33;;;;;;;8.63;100.00;97372.94;6087288;23;105567;-73
2023/10/06 02:48:18;;;;;;;7.20;6.30;;;;;;;8.48;100.00;97378.56;6086712;23;103977;-73
2023/10/06 02:50:50;;;;;;;7.23;6.07;;;;;;;8.48;100.00;97388.31;6087706;23;101962;-73
2023/10/06 02:53:20;;;;;;;10.13;7.00;;;;;;;8.33;100.00;97390.44;6091052;23;105475;-72
2023/10/06 02:55:55;;;;;;;7.40;6.23;;;;;;;8.42;100.00;97389.19;6086975;23;101932;-74
2023/10/06 02:58:27;;;;;;;7.43;6.00;;;;;;;8.43;100.00;97382.84;6087636;23;105281;-74
2023/10/06 03:00:55;;;;;;;6.27;5.67;;;;;;;8.26;100.00;97381.72;6086591;23;104920;-74
2023/10/06 03:03:27;;;;;;;8.60;6.53;;;;;;;8.17;100.00;97380.28;6087106;23;101858;-74
2023/10/06 03:05:56;;;;;;;7.77;6.07;;;;;;;8.26;100.00;97379.91;6087398;23;105323;-72
2023/10/06 03:08:28;;;;;;;7.10;6.40;;;;;;;8.33;100.00;97387.78;6086013;23;104401;-72
2023/10/06 03:10:55;;;;;;;7.10;6.40;;;;;;;8.33;100.00;97387.78;6087556;23;102146;-72
2023/10/06 03:13:32;;;;;;;8.00;7.20;;;;;;;8.37;100.00;97386.34;6087366;23;105150;-72
2023/10/06 03:16:00;;;;;;;7.33;6.57;;;;;;;8.40;100.00;97383.28;6090654;23;105579;-72
2023/10/06 03:18:28;;;;;;;7.83;6.93;;;;;;;8.36;100.00;97382.06;6087104;23;105308;-73
2023/10/06 03:21:00;;;;;;;8.57;7.40;;;;;;;8.33;100.00;97379.84;6086489;23;105301;-72
2023/10/06 03:23:31;;;;;;;7.80;6.20;;;;;;;8.33;100.00;97374.53;6087586;23;101927;-73
2023/10/06 03:25:58;;;;;;;8.67;6.77;;;;;;;8.21;100.00;97377.06;6087230;23;105279;-73
2023/10/06 03:28:32;;;;;;;9.53;7.50;;;;;;;8.12;100.00;97375.63;6086223;23;103749;-73
2023/10/06 03:31:21;;;;;;;8.63;6.40;;;;;;;8.24;100.00;97375.81;6087156;23;101760;-73
2023/10/06 03:33:51;;;;;;;8.33;6.47;;;;;;;8.15;100.00;97372.56;6087432;23;106057;-72
2023/10/06 03:36:29;;;;;;;7.70;6.33;;;;;;;8.02;100.00;97371.81;6088082;23;102972;-72
2023/10/06 03:38:57;;;;;;;8.60;6.30;;;;;;;7.94;100.00;97370.22;6091518;23;101741;-72
2023/10/06 03:41:31;;;;;;;7.73;6.93;;;;;;;8.02;100.00;97371.81;6086257;23;105159;-73
2023/10/06 03:44:03;;;;;;;27.30;6.87;;;;;;;7.97;100.00;97369.00;6087234;23;101811;-73
2023/10/06 03:46:37;;;;;;;7.03;6.33;;;;;;;7.90;100.00;97374.31;6087306;23;104793;-73
2023/10/06 03:49:04;;;;;;;6.37;5.77;;;;;;;7.86;100.00;97372.28;6086614;23;105386;-73
2023/10/06 03:51:37;;;;;;;6.93;6.23;;;;;;;7.80;100.00;97383.72;6086886;23;101817;-73
2023/10/06 03:54:05;;;;;;;7.70;6.90;;;;;;;7.90;100.00;97390.19;6111971;23;105304;-74
2023/10/06 03:56:32;;;;;;;7.23;6.53;;;;;;;7.93;100.00;97384.50;6086200;23;104863;-73
2023/10/06 03:59:01;;;;;;;7.57;6.77;;;;;;;8.18;100.00;97381.94;6090947;23;101779;-73
2023/10/06 04:01:31;;;;;;;8.67;7.80;;;;;;;8.18;100.00;97381.94;6086255;23;105423;-72
2023/10/06 04:03:59;;;;;;;7.47;6.77;;;;;;;8.14;100.00;97384.22;6087269;23;101776;-72
2023/10/06 04:06:26;;;;;;;7.40;6.63;;;;;;;8.08;100.00;97385.03;6087102;23;104255;-72
2023/10/06 04:08:56;;;;;;;13.70;6.53;;;;;;;7.97;100.00;97380.38;6110767;22;105525;-72
2023/10/06 04:11:24;;;;;;;19.40;7.00;;;;;;;7.87;100.00;97385.34;6086313;23;101986;-72
2023/10/06 04:13:51;;;;;;;7.87;6.57;;;;;;;7.95;100.00;97387.72;6111551;23;105314;-72
2023/10/06 04:16:19;;;;;;;6.37;5.87;;;;;;;8.02;100.00;97387.72;6086085;23;105610;-72
2023/10/06 04:18:47;;;;;;;5.83;5.33;;;;;;;8.03;100.00;97384.03;6086747;23;101945;-72
2023/10/06 04:21:14;;;;;;;6.87;6.20;;;;;;;8.13;100.00;97382.56;6090358;23;105120;-72
2023/10/06 04:23:42;;;;;;;6.60;6.00;;;;;;;8.07;100.00;97386.06;6088849;23;101715;-72
2023/10/06 04:26:10;;;;;;;7.30;6.63;;;;;;;8.05;100.00;97387.28;6089543;23;102976;-73
2023/10/06 04:28:37;;;;;;;8.03;7.23;;;;;;;8.15;100.00;97383.19;6086971;23;105708;-72
2023/10/06 04:31:06;;;;;;;7.00;6.40;;;;;;;8.11;100.00;97381.13;6088012;23;102063;-74
2023/10/06 04:33:35;;;;;;;5.80;5.40;;;;;;;8.19;100.00;97387.00;6087795;23;105086;-74
2023/10/06 04:36:07;;;;;;;5.40;5.00;;;;;;;8.19;100.00;97383.56;6086860;23;105574;-74
2023/10/06 04:38:37;;;;;;;5.00;4.60;;;;;;;8.00;100.00;97389.75;6088245;23;101749;-74
2023/10/06 04:41:07;;;;;;;4.30;4.00;;;;;;;8.03;100.00;97390.16;6087536;23;104980;-72
2023/10/06 04:43:34;;;;;;;4.40;4.10;;;;;;;8.11;100.00;97383.78;6091000;23;105645;-71
2023/10/06 04:46:01;;;;;;;3.90;3.60;;;;;;;8.07;100.00;97379.97;6088038;23;102743;-73
2023/10/06 04:48:35;;;;;;;4.13;3.83;;;;;;;8.00;100.00;97387.91;6088747;23;102779;-71
2023/10/06 04:51:04;;;;;;;4.20;3.90;;;;;;;7.89;100.00;97390.41;6088052;23;101853;-73
2023/10/06 04:53:35;;;;;;;3.97;3.67;;;;;;;7.96;100.00;97391.22;6087370;23;105239;-72
2023/10/06 04:56:03;;;;;;;4.50;4.10;;;;;;;7.94;100.00;97385.28;6088737;23;102890;-72
2023/10/06 04:58:30;;;;;;;4.50;4.10;;;;;;;7.99;100.00;97388.13;6087724;23;101845;-73
2023/10/06 05:00:59;;;;;;;4.73;4.40;;;;;;;8.05;100.00;97381.97;6087738;23;104910;-75
2023/10/06 05:03:27;;;;;;;5.30;4.80;;;;;;;8.07;100.00;97374.66;6111553;23;104954;-74
2023/10/06 05:05:56;;;;;;;4.40;4.10;;;;;;;7.92;100.00;97387.34;6116492;23;101880;-74
2023/10/06 05:08:24;;;;;;;18.23;4.80;;;;;;;7.89;100.00;97383.28;6086546;23;104106;-73
2023/10/06 05:10:52;;;;;;;4.47;4.17;;;;;;;7.72;100.00;97382.13;6087288;23;101799;-74
2023/10/06 05:13:19;;;;;;;4.43;4.00;;;;;;;7.72;100.00;97387.41;6087537;23;105220;-74
2023/10/06 05:15:46;;;;;;;3.93;3.63;;;;;;;7.85;100.00;97387.34;6088441;23;102634;-73
2023/10/06 05:18:15;;;;;;;4.63;4.23;;;;;;;7.91;100.00;97386.50;6087630;23;102069;-73
2023/10/06 05:20:43;;;;;;;4.47;4.17;;;;;;;7.94;100.00;97380.00;6087031;23;105146;-74
2023/10/06 05:23:14;;;;;;;4.73;4.30;;;;;;;7.95;100.00;97369.19;6086494;23;105483;-74
2023/10/06 05:25:42;;;;;;;5.67;4.43;;;;;;;7.89;100.00;97379.81;6088756;23;102094;-74
2023/10/06 05:28:10;;;;;;;4.93;4.33;;;;;;;7.93;100.00;97378.38;6091734;23;105600;-74
2023/10/06 05:30:39;;;;;;;5.17;4.67;;;;;;;7.90;100.00;97374.31;6088546;23;101786;-74
2023/10/06 05:33:07;;;;;;;5.17;4.77;;;;;;;7.98;100.00;97373.25;6088330;23;105529;-74
2023/10/06 05:35:38;;;;;;;5.77;5.20;;;;;;;7.97;100.00;97380.38;6112845;23;105347;-74
2023/10/06 05:38:07;;;;;;;6.67;6.07;;;;;;;7.90;100.00;97378.81;6089241;23;101679;-74
2023/10/06 05:40:36;;;;;;;9.33;5.63;;;;;;;7.82;100.00;97376.38;6088260;23;105101;-73
2023/10/06 05:43:11;;;;;;;6.10;5.60;;;;;;;7.72;100.00;97376.00;6087774;23;104378;-75
2023/10/06 05:45:39;;;;;;;5.87;5.30;;;;;;;7.66;100.00;97380.31;6089362;23;102033;-74
2023/10/06 05:48:10;;;;;;;5.90;5.30;;;;;;;7.79;100.00;97374.16;6088451;23;104804;-74
2023/10/06 05:50:37;;;;;;;6.67;6.10;;;;;;;7.87;100.00;97376.56;6092359;23;105581;-74
2023/10/06 05:53:07;;;;;;;5.80;5.30;;;;;;;7.96;100.00;97377.97;6088667;23;105482;-74
2023/10/06 05:55:37;;;;;;;6.43;5.93;;;;;;;8.06;100.00;97375.66;6087657;23;105357;-74
2023/10/06 05:58:09;;;;;;;6.97;6.37;;;;;;;8.24;100.00;97383.78;6090186;23;101802;-74
2023/10/06 06:00:43;;;;;;;8.40;7.60;;;;;;;8.30;100.00;97390.88;6113308;23;105043;-74
2023/10/06 06:03:11;;;;;;;8.70;7.90;;;;;;;8.37;100.00;97383.69;6089618;23;102819;-74
2023/10/06 06:05:39;;;;;;;8.83;7.97;;;;;;;8.45;100.00;97388.78;6088584;23;101919;-74
2023/10/06 06:08:08;;;;;;;8.73;7.90;;;;;;;8.58;100.00;97388.69;6089422;23;102613;-73
2023/10/06 06:10:37;;;;;;;8.33;7.53;;;;;;;8.72;100.00;97396.34;6091844;23;105660;-73
2023/10/06 06:13:04;;;;;;;8.10;7.30;;;;;;;8.83;100.00;97397.50;6088444;23;105595;-73
2023/10/06 06:15:31;;;;;;;8.53;7.73;;;;;;;8.69;100.00;97391.47;6087685;23;105221;-73
2023/10/06 06:18:00;;;;;;;8.20;7.40;;;;;;;8.85;100.00;97398.09;6088440;23;101833;-73
2023/10/06 06:20:28;;;;;;;8.17;7.37;;;;;;;8.80;100.00;97397.91;6088435;23;105129;-74
2023/10/06 06:22:58;;;;;;;7.87;7.03;;;;;;;8.88;100.00;97397.69;6087535;23;105417;-74
2023/10/06 06:25:26;;;;;;;7.30;6.60;;;;;;;8.91;100.00;97405.19;6088225;23;101990;-74
2023/10/06 06:27:59;;;;;;;7.80;7.00;;;;;;;9.03;100.00;97408.75;6088207;23;104900;-74
2023/10/06 06:30:32;;;;;;;8.47;7.30;;;;;;;9.05;100.00;97401.41;6087877;23;105416;-74
2023/10/06 06:33:04;;;;;;;7.70;7.00;;;;;;;9.03;100.00;97408.75;6092270;23;101848;-73
2023/10/06 06:35:32;;;;;;;7.10;6.40;;;;;;;9.03;100.00;97406.09;6087016;23;105667;-74
2023/10/06 06:38:01;;;;;;;7.63;6.73;;;;;;;9.07;100.00;97408.13;6112367;23;101876;-73
2023/10/06 06:40:29;;;;;;;8.30;7.30;;;;;;;9.13;100.00;97414.41;6088420;23;105268;-73
2023/10/06 06:42:58;;;;;;;8.63;6.90;;;;;;;9.22;100.00;97415.78;6087523;23;105448;-73
2023/10/06 06:45:25;;;;;;;9.83;7.17;;;;;;;9.35;100.00;97418.31;6088143;23;101846;-74
2023/10/06 06:47:52;;;;;;;13.00;8.03;;;;;;;9.31;100.00;97414.44;6088143;23;105387;-74
2023/10/06 06:50:21;;;;;;;9.40;6.37;;;;;;;9.38;100.00;97416.03;6086946;23;105482;-74
2023/10/06 06:52:50;;;;;;;8.57;6.00;;;;;;;9.41;100.00;97417.44;6088092;23;101858;-74
2023/10/06 06:55:20;;;;;;;7.10;6.43;;;;;;;9.23;100.00;97420.03;6091798;23;104863;-73
2023/10/06 06:57:49;;;;;;;11.83;9.07;;;;;;;9.09;100.00;97423.81;6088268;23;101781;-73
2023/10/06 07:00:21;;;;;;;33.10;25.53;;;;;;;9.19;100.00;97424.16;6087748;23;105415;-74
2023/10/06 07:02:51;;;;;;;31.10;27.23;;;;;;;9.33;100.00;97426.47;6086616;23;105799;-74
2023/10/06 07:05:19;;;;;;;28.43;21.87;;;;;;;9.52;100.00;97427.34;6086563;23;101937;-74
2023/10/06 07:07:47;;;;;;;15.90;11.40;;;;;;;9.61;100.00;97432.19;6088362;23;101611;-74
2023/10/06 07:10:22;;;;;;;12.50;8.90;;;;;;;9.79;100.00;97426.88;6086071;23;105635;-74
2023/10/06 07:12:58;;;;;;;12.40;8.80;;;;;;;9.72;100.00;97426.13;6086651;23;102305;-75
2023/10/06 07:15:29;;;;;;;28.17;10.60;;;;;;;9.68;100.00;97437.41;6087009;23;105191;-75
2023/10/06 07:18:03;;;;;;;12.63;9.07;;;;;;;9.94;100.00;97434.47;6090100;23;105616;-66
2023/10/06 07:20:32;;;;;;;11.93;10.67;;;;;;;10.09;100.00;97437.63;6088265;23;105254;-60
2023/10/06 07:23:01;;;;;;;12.33;10.67;;;;;;;10.27;100.00;97433.13;6086265;23;104963;-59
2023/10/06 07:25:28;;;;;;;12.47;11.17;;;;;;;10.35;100.00;97445.31;6088873;23;101772;-59
2023/10/06 07:27:57;;;;;;;13.10;10.20;;;;;;;10.40;100.00;97445.41;6087126;23;104736;-59
2023/10/06 07:30:25;;;;;;;11.43;10.23;;;;;;;10.50;100.00;97437.72;6085888;23;105527;-59
2023/10/06 07:32:55;;;;;;;12.20;10.87;;;;;;;10.42;100.00;97441.50;6086564;23;101902;-59
2023/10/06 07:35:27;;;;;;;56.43;12.37;;;;;;;10.09;100.00;97445.59;6086883;23;105493;-59
2023/10/06 07:37:54;;;;;;;12.43;11.00;;;;;;;10.04;100.00;97453.44;6086269;23;104075;-60
2023/10/06 07:40:21;;;;;;;18.27;11.80;;;;;;;9.92;100.00;97455.97;6091110;23;101916;-60
2023/10/06 07:42:50;;;;;;;24.23;11.63;;;;;;;10.11;100.00;97459.47;6086612;23;105245;-60
2023/10/06 07:45:17;;;;;;;15.67;11.10;;;;;;;10.12;100.00;97458.44;6087228;23;101811;-59
2023/10/06 07:47:44;;;;;;;12.17;10.83;;;;;;;10.30;100.00;97445.16;6086593;23;105453;-59
2023/10/06 07:50:14;;;;;;;13.23;11.87;;;;;;;10.65;100.00;97443.47;6087871;23;101969;-59
2023/10/06 07:52:42;;;;;;;13.57;10.87;;;;;;;10.92;100.00;97450.06;6086796;23;101954;-59
2023/10/06 07:55:11;;;;;;;14.30;12.53;;;;;;;10.95;100.00;97449.63;6088780;23;102526;-60
2023/10/06 07:57:41;;;;;;;12.33;11.03;;;;;;;10.91;100.00;97446.56;6087699;23;102603;-60
2023/10/06 08:00:09;;;;;;;10.70;9.70;;;;;;;10.91;100.00;97443.13;6088678;23;101785;-60
2023/10/06 08:02:40;;;;;;;13.50;9.83;;;;;;;10.71;100.00;97439.91;6093358;23;102348;-60
2023/10/06 08:53:00;;;;;;;12.07;10.87;;;;;;;13.46;100.00;97409.38;5195913;23;112141;-60
2023/10/06 08:55:28;;;;;;;12.03;10.40;;;;;;;13.76;100.00;97403.69;6086943;23;101756;-59
2023/10/06 08:57:58;;;;;;;11.83;10.40;;;;;;;14.11;100.00;97391.63;6088592;23;102449;-60
2023/10/06 09:00:26;;;;;;;14.37;10.17;;;;;;;14.20;100.00;97378.66;6092674;23;102767;-60
2023/10/06 09:02:55;;;;;;;11.67;8.93;;;;;;;14.18;100.00;97375.38;6088913;23;102218;-60
2023/10/06 09:05:22;;;;;;;10.27;9.23;;;;;;;14.45;100.00;97365.56;6086902;23;105189;-60
2023/10/06 09:08:00;;;;;;;11.53;9.47;;;;;;;14.75;100.00;97357.84;6090533;23;101995;-59
2023/10/06 09:10:29;;;;;;;8.43;7.50;;;;;;;15.12;100.00;97356.06;6089004;23;105278;-60
2023/10/06 09:13:04;;;;;;;7.63;6.83;;;;;;;14.98;100.00;97355.66;6089619;23;102975;-59
2023/10/06 09:15:31;;;;;;;10.37;7.80;;;;;;;14.95;100.00;97358.06;6090943;23;101573;-60
2023/10/06 09:18:00;;;;;;;10.10;8.50;;;;;;;14.69;100.00;97356.19;6088603;23;104190;-67
2023/10/06 09:20:32;;;;;;;8.20;7.40;;;;;;;14.50;100.00;97350.38;6088169;23;105750;-59
2023/10/06 09:23:00;;;;;;;10.07;8.00;;;;;;;14.79;100.00;97356.28;6092841;23;101924;-60
2023/10/06 09:25:29;;;;;;;7.77;6.97;;;;;;;14.91;100.00;97355.09;6087950;23;105512;-60
2023/10/06 09:28:03;;;;;;;8.93;8.00;;;;;;;14.39;100.00;97347.84;6088863;23;101899;-59
2023/10/06 09:30:30;;;;;;;10.50;7.93;;;;;;;14.68;100.00;97346.53;6088866;23;105601;-60
2023/10/06 09:33:04;;;;;;;7.57;6.87;;;;;;;15.03;100.00;97352.22;6087648;23;103983;-59
2023/10/06 09:35:32;;;;;;;8.70;7.07;;;;;;;15.19;100.00;97345.94;6088641;23;101895;-59
2023/10/06 09:38:16;;;;;;;8.50;7.67;;;;;;;14.84;100.00;97343.78;6088290;23;105653;-59
2023/10/06 09:40:44;;;;;;;9.87;7.53;;;;;;;15.32;100.00;97348.97;6111924;23;105753;-60
2023/10/06 09:43:16;;;;;;;10.00;7.87;;;;;;;15.23;100.00;97349.72;6088138;23;101967;-59
2023/10/06 09:45:43;;;;;;;11.20;8.03;;;;;;;15.32;100.00;97340.94;6091999;23;105140;-59
2023/10/06 09:48:15;;;;;;;11.00;8.17;;;;;;;15.37;100.00;97343.69;6088463;23;101860;-59
2023/10/06 09:50:44;;;;;;;9.77;8.77;;;;;;;15.27;100.00;97338.22;6088811;23;105345;-59
2023/10/06 09:53:13;;;;;;;9.30;8.30;;;;;;;15.53;100.00;97333.91;6087454;23;105686;-59
2023/10/06 09:55:42;;;;;;;11.77;8.77;;;;;;;15.84;100.00;97333.00;6090314;23;101773;-59
2023/10/06 09:58:10;;;;;;;9.80;7.70;;;;;;;16.60;100.00;97333.06;6090246;23;102329;-59
2023/10/06 10:00:40;;;;;;;10.97;8.10;;;;;;;16.79;100.00;97323.41;6089257;23;101913;-60
2023/10/06 10:03:12;;;;;;;11.23;7.90;;;;;;;17.32;100.00;97319.41;6088142;23;101936;-60
2023/10/06 10:05:39;;;;;;;7.93;6.90;;;;;;;17.65;100.00;97314.28;6088621;23;104686;-59
2023/10/06 10:08:07;;;;;;;8.07;6.23;;;;;;;17.62;100.00;97312.16;6092217;23;105825;-59
2023/10/06 10:10:38;;;;;;;8.73;6.67;;;;;;;17.44;100.00;97304.63;6088386;23;104958;-60
2023/10/06 10:13:37;;;;;;;9.20;6.50;;;;;;;17.50;100.00;97300.06;6089115;23;103676;-60
2023/10/06 10:16:22;;;;;;;7.60;6.50;;;;;;;17.16;100.00;97299.78;6090347;23;102065;-60
2023/10/06 10:18:56;;;;;;;10.30;6.87;;;;;;;17.34;100.00;97317.25;6088436;23;104950;-60
2023/10/06 10:21:24;;;;;;;6.53;5.83;;;;;;;17.88;100.00;97312.91;6087220;23;105569;-60
2023/10/06 10:23:51;;;;;;;9.00;6.17;;;;;;;18.06;100.00;97306.91;6088300;23;101812;-60
2023/10/06 10:26:23;;;;;;;9.40;6.50;;;;;;;17.81;100.00;97307.78;6087987;23;105159;-60
2023/10/06 10:29:24;;;;;;;6.43;5.70;;;;;;;17.63;100.00;97310.25;6089218;23;102699;-59
2023/10/06 10:31:56;;;;;;;8.20;6.27;;;;;;;17.84;100.00;97309.13;6092312;23;101776;-60
2023/10/06 10:34:25;;;;;;;9.27;6.33;;;;;;;18.23;100.00;97305.50;6087602;23;105371;-60
2023/10/06 10:37:15;;;;;;;6.40;5.80;;;;;;;18.49;100.00;97306.19;6089948;23;101798;-60
2023/10/06 10:39:48;;;;;;;8.87;6.27;;;;;;;18.66;100.00;97309.31;6090323;23;102835;-60
2023/10/06 10:42:17;;;;;;;8.33;6.50;;;;;;;18.05;100.00;97310.69;6089291;23;103127;-60
2023/10/06 10:44:44;;;;;;;7.03;5.97;;;;;;;18.26;100.00;97309.53;6088344;23;101862;-60
2023/10/06 10:47:14;;;;;;;7.83;5.70;;;;;;;19.13;100.00;97294.16;6089955;23;102879;-60
2023/10/06 10:49:44;;;;;;;7.20;5.73;;;;;;;19.36;100.00;97298.03;6089507;23;102818;-60
2023/10/06 10:52:12;;;;;;;7.27;6.23;;;;;;;18.99;100.00;97297.78;6094507;23;101719;-60
2023/10/06 10:54:40;;;;;;;7.37;5.53;;;;;;;19.11;100.00;97290.94;6089056;23;102691;-60
2023/10/06 10:57:11;;;;;;;6.13;5.53;;;;;;;19.32;100.00;97291.59;6088273;23;101913;-60
2023/10/06 11:03:04;;;;;;;8.70;6.30;;;;;;;19.61;100.00;97281.63;6086351;23;103019;-60
2023/10/06 11:05:32;;;;;;;9.37;5.73;;;;;;;20.00;100.00;97283.03;6088757;23;101708;-60
2023/10/06 11:08:01;;;;;;;6.87;5.43;;;;;;;19.87;100.00;97272.13;6088230;23;105914;-60
2023/10/06 11:10:29;;;;;;;6.80;5.73;;;;;;;18.83;100.00;97272.00;6087346;23;105445;-60
2023/10/06 11:13:15;;;;;;;5.87;5.27;;;;;;;19.50;100.00;97272.81;6090165;23;101849;-60
2023/10/06 11:15:42;;;;;;;7.70;5.63;;;;;;;19.85;100.00;97269.75;6093542;23;102304;-60
2023/10/06 11:18:13;;;;;;;6.67;5.90;;;;;;;20.00;100.00;97253.34;6089816;23;101755;-60
2023/10/06 11:20:40;;;;;;;10.83;6.20;;;;;;;20.32;100.00;97263.50;6089530;23;103536;-60
2023/10/06 11:23:08;;;;;;;8.77;5.77;;;;;;;19.94;100.00;97264.50;6087009;23;105376;-60
2023/10/06 11:25:37;;;;;;;6.13;5.40;;;;;;;19.32;100.00;97260.03;6090180;23;101784;-60
2023/10/06 11:28:05;;;;;;;8.17;5.77;;;;;;;19.96;100.00;97255.03;6088154;23;105253;-60
2023/10/06 11:30:33;;;;;;;7.57;5.43;;;;;;;20.65;100.00;97241.66;6089211;23;101695;-60
2023/10/06 11:33:02;;;;;;;6.90;5.47;;;;;;;20.13;100.00;97252.69;6090017;23;102105;-60
2023/10/06 11:35:31;;;;;;;6.83;5.10;;;;;;;20.78;100.00;97242.81;6088444;23;105220;-60
2023/10/06 11:37:58;;;;;;;9.30;5.37;;;;;;;21.29;100.00;97246.31;6092746;23;102596;-60
2023/10/06 11:40:26;;;;;;;6.43;5.43;;;;;;;21.08;100.00;97242.38;6089663;23;102368;-60
2023/10/06 11:42:53;;;;;;;6.83;4.67;;;;;;;21.38;100.00;97245.34;6089069;23;102637;-60
2023/10/06 11:45:27;;;;;;;6.17;4.70;;;;;;;21.52;100.00;97242.69;6090023;23;101793;-60
2023/10/06 11:47:55;;;;;;;6.03;4.70;;;;;;;21.50;100.00;97242.16;6090118;23;102327;-59
2023/10/06 11:50:24;;;;;;;5.17;4.47;;;;;;;21.92;100.00;97222.97;6087044;23;106194;-60
2023/10/06 11:52:53;;;;;;;8.67;4.80;;;;;;;21.97;100.00;97225.56;6087875;23;101947;-59
2023/10/06 11:55:29;;;;;;;7.10;4.20;;;;;;;21.82;100.00;97223.16;6087961;23;105089;-59
2023/10/06 11:57:58;;;;;;;7.50;4.90;;;;;;;22.06;100.00;97224.53;6089004;23;102603;-58
2023/10/06 12:00:43;;;;;;;5.57;4.20;;;;;;;22.61;100.00;97217.91;6093975;23;101831;-59
2023/10/06 12:03:16;;;;;;;6.63;4.10;;;;;;;22.52;100.00;97202.69;6089078;23;102700;-59
2023/10/06 12:05:56;;;;;;;6.53;3.90;;;;;;;22.59;100.00;97203.06;6088090;23;101856;-59
2023/10/06 12:08:24;;;;;;;4.80;3.80;;;;;;;23.14;100.00;97204.41;6088135;23;105333;-59
2023/10/06 12:10:52;;;;;;;5.93;4.30;;;;;;;23.14;97.11;97202.50;6088846;23;102422;-59
2023/10/06 12:13:19;;;;;;;4.83;4.23;;;;;;;22.77;100.00;97196.69;6089847;23;101781;-59
2023/10/06 12:15:46;;;;;;;5.47;3.60;;;;;;;23.03;100.00;97194.94;6089536;23;102833;-59
2023/10/06 12:18:13;;;;;;;6.47;3.83;;;;;;;23.07;100.00;97194.03;6089217;23;102583;-59
2023/10/06 12:20:41;;;;;;;7.70;4.17;;;;;;;23.49;93.49;97192.66;6089604;23;101871;-59
2023/10/06 12:23:08;;;;;;;5.60;3.90;;;;;;;23.56;95.85;97187.59;6092929;23;102528;-59
2023/10/06 12:25:37;;;;;;;7.30;4.00;;;;;;;23.22;100.00;97182.00;6089274;23;101780;-59